sensor_id;sensor_type;location;lat;lon;timestamp;P1;durP1;ratioP1;P2;durP2;ratioP2
47778;SDS011;33538;48.432;11.350;2022-08-19T00:00:57;4.13;;;3.00;;
47778;SDS011;33538;48.432;11.350;2022-08-19T00:03:24;4.63;;;2.78;;
47778;SDS011;33538;48.432;11.350;2022-08-19T00:05:51;6.50;;;3.08;;
47778;SDS011;33538;48.432;11.350;2022-08-19T00:08:17;5.82;;;2.88;;
47778;SDS011;33538;48.432;11.350;2022-08-19T00:10:44;7.85;;;3.70;;
47778;SDS011;33538;48.432;11.350;2022-08-19T00:13:11;7.60;;;3.13;;
47778;SDS011;33538;48.432;11.350;2022-08-19T00:15:38;4.55;;;2.67;;
47778;SDS011;33538;48.432;11.350;2022-08-19T00:18:06;7.05;;;3.45;;
47778;SDS011;33538;48.432;11.350;2022-08-19T00:20:33;3.90;;;2.60;;
47778;SDS011;33538;48.432;11.350;2022-08-19T00:23:00;5.63;;;2.88;;
47778;SDS011;33538;48.432;11.350;2022-08-19T00:25:27;4.90;;;3.05;;
47778;SDS011;33538;48.432;11.350;2022-08-19T00:27:56;3.80;;;2.42;;
47778;SDS011;33538;48.432;11.350;2022-08-19T00:30:23;5.63;;;2.85;;
47778;SDS011;33538;48.432;11.350;2022-08-19T00:32:50;5.72;;;2.95;;
47778;SDS011;33538;48.432;11.350;2022-08-19T00:35:18;5.57;;;2.75;;
47778;SDS011;33538;48.432;11.350;2022-08-19T00:37:46;5.63;;;2.50;;
47778;SDS011;33538;48.432;11.350;2022-08-19T00:40:13;3.78;;;2.22;;
47778;SDS011;33538;48.432;11.350;2022-08-19T00:42:41;4.30;;;2.65;;
47778;SDS011;33538;48.432;11.350;2022-08-19T00:45:09;3.58;;;2.30;;
47778;SDS011;33538;48.432;11.350;2022-08-19T00:47:38;5.30;;;2.63;;
47778;SDS011;33538;48.432;11.350;2022-08-19T00:50:05;3.25;;;1.90;;
47778;SDS011;33538;48.432;11.350;2022-08-19T00:52:36;3.55;;;1.92;;
47778;SDS011;33538;48.432;11.350;2022-08-19T00:55:06;3.63;;;2.28;;
47778;SDS011;33538;48.432;11.350;2022-08-19T00:57:35;3.08;;;2.15;;
47778;SDS011;33538;48.432;11.350;2022-08-19T01:00:04;3.17;;;1.88;;
47778;SDS011;33538;48.432;11.350;2022-08-19T01:02:34;3.40;;;2.00;;
47778;SDS011;33538;48.432;11.350;2022-08-19T01:05:03;5.00;;;1.98;;
47778;SDS011;33538;48.432;11.350;2022-08-19T01:07:32;3.05;;;1.60;;
47778;SDS011;33538;48.432;11.350;2022-08-19T01:10:04;3.33;;;1.67;;
47778;SDS011;33538;48.432;11.350;2022-08-19T01:12:33;3.35;;;1.70;;
47778;SDS011;33538;48.432;11.350;2022-08-19T01:15:01;2.88;;;1.98;;
47778;SDS011;33538;48.432;11.350;2022-08-19T01:17:28;3.90;;;2.40;;
47778;SDS011;33538;48.432;11.350;2022-08-19T01:19:55;5.13;;;2.80;;
47778;SDS011;33538;48.432;11.350;2022-08-19T01:22:28;1.92;;;1.30;;
47778;SDS011;33538;48.432;11.350;2022-08-19T01:24:59;2.85;;;1.80;;
47778;SDS011;33538;48.432;11.350;2022-08-19T01:27:26;3.08;;;2.00;;
47778;SDS011;33538;48.432;11.350;2022-08-19T01:30:09;3.72;;;2.03;;
47778;SDS011;33538;48.432;11.350;2022-08-19T01:32:37;3.35;;;1.73;;
47778;SDS011;33538;48.432;11.350;2022-08-19T01:35:04;4.63;;;2.17;;
47778;SDS011;33538;48.432;11.350;2022-08-19T01:37:42;2.47;;;1.52;;
47778;SDS011;33538;48.432;11.350;2022-08-19T01:40:14;2.83;;;1.83;;
47778;SDS011;33538;48.432;11.350;2022-08-19T01:42:41;2.70;;;1.75;;
47778;SDS011;33538;48.432;11.350;2022-08-19T01:45:08;4.05;;;2.03;;
47778;SDS011;33538;48.432;11.350;2022-08-19T01:47:36;2.30;;;1.42;;
47778;SDS011;33538;48.432;11.350;2022-08-19T01:50:03;1.88;;;1.40;;
47778;SDS011;33538;48.432;11.350;2022-08-19T01:52:31;2.50;;;1.65;;
47778;SDS011;33538;48.432;11.350;2022-08-19T01:55:02;3.55;;;1.60;;
47778;SDS011;33538;48.432;11.350;2022-08-19T01:57:29;1.27;;;1.05;;
47778;SDS011;33538;48.432;11.350;2022-08-19T01:59:56;3.17;;;1.33;;
47778;SDS011;33538;48.432;11.350;2022-08-19T02:02:23;3.63;;;1.60;;
47778;SDS011;33538;48.432;11.350;2022-08-19T02:04:50;3.22;;;1.65;;
47778;SDS011;33538;48.432;11.350;2022-08-19T02:07:18;3.33;;;1.42;;
47778;SDS011;33538;48.432;11.350;2022-08-19T02:09:45;5.88;;;2.30;;
47778;SDS011;33538;48.432;11.350;2022-08-19T02:12:13;1.92;;;1.42;;
47778;SDS011;33538;48.432;11.350;2022-08-19T02:14:41;1.85;;;1.20;;
47778;SDS011;33538;48.432;11.350;2022-08-19T02:17:08;1.50;;;0.82;;
47778;SDS011;33538;48.432;11.350;2022-08-19T02:19:35;2.13;;;1.42;;
47778;SDS011;33538;48.432;11.350;2022-08-19T02:22:06;2.13;;;1.48;;
47778;SDS011;33538;48.432;11.350;2022-08-19T02:24:33;1.10;;;1.00;;
47778;SDS011;33538;48.432;11.350;2022-08-19T02:26:59;1.35;;;1.02;;
47778;SDS011;33538;48.432;11.350;2022-08-19T02:29:27;1.83;;;1.40;;
47778;SDS011;33538;48.432;11.350;2022-08-19T02:31:54;3.65;;;1.63;;
47778;SDS011;33538;48.432;11.350;2022-08-19T02:34:21;2.75;;;1.35;;
47778;SDS011;33538;48.432;11.350;2022-08-19T02:36:48;2.75;;;1.60;;
47778;SDS011;33538;48.432;11.350;2022-08-19T02:39:17;2.20;;;1.23;;
47778;SDS011;33538;48.432;11.350;2022-08-19T02:41:44;4.82;;;1.73;;
47778;SDS011;33538;48.432;11.350;2022-08-19T02:44:11;2.30;;;1.75;;
47778;SDS011;33538;48.432;11.350;2022-08-19T02:46:57;1.95;;;1.42;;
47778;SDS011;33538;48.432;11.350;2022-08-19T02:49:24;2.65;;;1.48;;
47778;SDS011;33538;48.432;11.350;2022-08-19T02:51:50;3.53;;;2.03;;
47778;SDS011;33538;48.432;11.350;2022-08-19T02:54:17;2.22;;;1.60;;
47778;SDS011;33538;48.432;11.350;2022-08-19T02:56:44;3.67;;;1.85;;
47778;SDS011;33538;48.432;11.350;2022-08-19T02:59:11;3.88;;;2.03;;
47778;SDS011;33538;48.432;11.350;2022-08-19T03:01:39;3.35;;;1.80;;
47778;SDS011;33538;48.432;11.350;2022-08-19T03:04:10;2.85;;;1.98;;
47778;SDS011;33538;48.432;11.350;2022-08-19T03:06:39;2.58;;;1.85;;
47778;SDS011;33538;48.432;11.350;2022-08-19T03:09:08;5.38;;;2.70;;
47778;SDS011;33538;48.432;11.350;2022-08-19T03:11:36;3.28;;;1.90;;
47778;SDS011;33538;48.432;11.350;2022-08-19T03:14:04;2.60;;;2.00;;
47778;SDS011;33538;48.432;11.350;2022-08-19T03:16:35;3.03;;;2.30;;
47778;SDS011;33538;48.432;11.350;2022-08-19T03:19:08;4.57;;;2.25;;
47778;SDS011;33538;48.432;11.350;2022-08-19T03:21:35;4.05;;;2.35;;
47778;SDS011;33538;48.432;11.350;2022-08-19T03:24:03;3.60;;;2.15;;
47778;SDS011;33538;48.432;11.350;2022-08-19T03:26:31;4.07;;;2.47;;
47778;SDS011;33538;48.432;11.350;2022-08-19T03:29:00;5.07;;;2.35;;
47778;SDS011;33538;48.432;11.350;2022-08-19T03:31:30;7.72;;;3.30;;
47778;SDS011;33538;48.432;11.350;2022-08-19T03:34:13;4.07;;;2.58;;
47778;SDS011;33538;48.432;11.350;2022-08-19T03:36:41;5.80;;;2.67;;
47778;SDS011;33538;48.432;11.350;2022-08-19T03:39:09;5.35;;;3.17;;
47778;SDS011;33538;48.432;11.350;2022-08-19T03:41:37;9.30;;;3.08;;
47778;SDS011;33538;48.432;11.350;2022-08-19T03:44:11;6.13;;;3.10;;
47778;SDS011;33538;48.432;11.350;2022-08-19T03:46:44;5.30;;;2.85;;
47778;SDS011;33538;48.432;11.350;2022-08-19T03:49:13;6.30;;;3.22;;
47778;SDS011;33538;48.432;11.350;2022-08-19T03:51:40;4.13;;;2.67;;
47778;SDS011;33538;48.432;11.350;2022-08-19T03:54:08;10.32;;;4.00;;
47778;SDS011;33538;48.432;11.350;2022-08-19T03:56:39;7.65;;;4.05;;
47778;SDS011;33538;48.432;11.350;2022-08-19T03:59:09;7.22;;;4.03;;
47778;SDS011;33538;48.432;11.350;2022-08-19T04:01:37;6.82;;;4.30;;
47778;SDS011;33538;48.432;11.350;2022-08-19T04:04:04;6.75;;;4.05;;
47778;SDS011;33538;48.432;11.350;2022-08-19T04:06:32;8.07;;;4.78;;
47778;SDS011;33538;48.432;11.350;2022-08-19T04:11:34;7.25;;;3.90;;
47778;SDS011;33538;48.432;11.350;2022-08-19T04:14:09;8.40;;;3.90;;
47778;SDS011;33538;48.432;11.350;2022-08-19T04:16:38;10.57;;;4.50;;
47778;SDS011;33538;48.432;11.350;2022-08-19T04:19:05;10.15;;;4.22;;
47778;SDS011;33538;48.432;11.350;2022-08-19T04:21:33;9.95;;;4.68;;
47778;SDS011;33538;48.432;11.350;2022-08-19T04:24:01;7.28;;;4.07;;
47778;SDS011;33538;48.432;11.350;2022-08-19T04:26:31;7.20;;;3.88;;
47778;SDS011;33538;48.432;11.350;2022-08-19T04:28:59;6.05;;;3.88;;
47778;SDS011;33538;48.432;11.350;2022-08-19T04:31:28;7.38;;;3.92;;
47778;SDS011;33538;48.432;11.350;2022-08-19T04:33:56;7.80;;;4.25;;
47778;SDS011;33538;48.432;11.350;2022-08-19T04:36:26;9.85;;;4.45;;
47778;SDS011;33538;48.432;11.350;2022-08-19T04:38:56;13.02;;;5.97;;
47778;SDS011;33538;48.432;11.350;2022-08-19T04:41:24;9.00;;;4.93;;
47778;SDS011;33538;48.432;11.350;2022-08-19T04:43:51;12.40;;;5.43;;
47778;SDS011;33538;48.432;11.350;2022-08-19T04:46:18;6.93;;;4.35;;
47778;SDS011;33538;48.432;11.350;2022-08-19T04:49:05;10.60;;;5.43;;
47778;SDS011;33538;48.432;11.350;2022-08-19T04:51:40;8.87;;;5.03;;
47778;SDS011;33538;48.432;11.350;2022-08-19T04:54:09;10.18;;;5.32;;
47778;SDS011;33538;48.432;11.350;2022-08-19T04:56:36;9.75;;;5.25;;
47778;SDS011;33538;48.432;11.350;2022-08-19T04:59:04;9.63;;;4.65;;
47778;SDS011;33538;48.432;11.350;2022-08-19T05:01:31;10.43;;;4.85;;
47778;SDS011;33538;48.432;11.350;2022-08-19T05:03:59;7.30;;;4.47;;
47778;SDS011;33538;48.432;11.350;2022-08-19T05:06:27;12.25;;;5.40;;
47778;SDS011;33538;48.432;11.350;2022-08-19T05:08:54;10.32;;;5.53;;
47778;SDS011;33538;48.432;11.350;2022-08-19T05:11:22;11.27;;;6.32;;
47778;SDS011;33538;48.432;11.350;2022-08-19T05:13:52;9.68;;;5.57;;
47778;SDS011;33538;48.432;11.350;2022-08-19T05:16:19;11.55;;;5.65;;
47778;SDS011;33538;48.432;11.350;2022-08-19T05:18:48;7.97;;;4.78;;
47778;SDS011;33538;48.432;11.350;2022-08-19T05:21:15;8.88;;;5.05;;
47778;SDS011;33538;48.432;11.350;2022-08-19T05:23:44;10.52;;;5.53;;
47778;SDS011;33538;48.432;11.350;2022-08-19T05:26:10;11.32;;;5.90;;
47778;SDS011;33538;48.432;11.350;2022-08-19T05:28:39;12.75;;;6.30;;
47778;SDS011;33538;48.432;11.350;2022-08-19T05:31:05;12.55;;;6.32;;
47778;SDS011;33538;48.432;11.350;2022-08-19T05:33:32;14.00;;;6.80;;
47778;SDS011;33538;48.432;11.350;2022-08-19T05:36:00;13.93;;;6.50;;
47778;SDS011;33538;48.432;11.350;2022-08-19T05:38:27;14.63;;;6.82;;
47778;SDS011;33538;48.432;11.350;2022-08-19T05:40:54;13.55;;;6.70;;
47778;SDS011;33538;48.432;11.350;2022-08-19T05:43:21;13.10;;;5.80;;
47778;SDS011;33538;48.432;11.350;2022-08-19T05:45:49;12.00;;;6.65;;
47778;SDS011;33538;48.432;11.350;2022-08-19T05:48:16;10.65;;;6.25;;
47778;SDS011;33538;48.432;11.350;2022-08-19T05:50:43;12.27;;;6.47;;
47778;SDS011;33538;48.432;11.350;2022-08-19T05:53:10;12.70;;;6.97;;
47778;SDS011;33538;48.432;11.350;2022-08-19T05:55:36;14.02;;;7.95;;
47778;SDS011;33538;48.432;11.350;2022-08-19T05:58:03;13.30;;;7.30;;
47778;SDS011;33538;48.432;11.350;2022-08-19T06:00:30;11.07;;;6.70;;
47778;SDS011;33538;48.432;11.350;2022-08-19T06:02:58;15.15;;;7.78;;
47778;SDS011;33538;48.432;11.350;2022-08-19T06:05:34;17.98;;;8.25;;
47778;SDS011;33538;48.432;11.350;2022-08-19T06:08:15;12.48;;;7.00;;
47778;SDS011;33538;48.432;11.350;2022-08-19T06:10:43;15.15;;;8.15;;
47778;SDS011;33538;48.432;11.350;2022-08-19T06:13:10;14.07;;;6.78;;
47778;SDS011;33538;48.432;11.350;2022-08-19T06:15:36;17.90;;;8.73;;
47778;SDS011;33538;48.432;11.350;2022-08-19T06:18:04;13.35;;;7.45;;
47778;SDS011;33538;48.432;11.350;2022-08-19T06:20:31;14.40;;;6.88;;
47778;SDS011;33538;48.432;11.350;2022-08-19T06:23:18;16.48;;;7.85;;
47778;SDS011;33538;48.432;11.350;2022-08-19T06:25:49;16.33;;;8.27;;
47778;SDS011;33538;48.432;11.350;2022-08-19T06:28:16;15.63;;;7.15;;
47778;SDS011;33538;48.432;11.350;2022-08-19T06:30:43;17.25;;;7.95;;
47778;SDS011;33538;48.432;11.350;2022-08-19T06:33:11;16.30;;;8.40;;
47778;SDS011;33538;48.432;11.350;2022-08-19T06:35:38;15.73;;;7.82;;
47778;SDS011;33538;48.432;11.350;2022-08-19T06:38:06;17.75;;;8.00;;
47778;SDS011;33538;48.432;11.350;2022-08-19T06:40:32;18.23;;;9.13;;
47778;SDS011;33538;48.432;11.350;2022-08-19T06:42:59;18.52;;;8.18;;
47778;SDS011;33538;48.432;11.350;2022-08-19T06:45:30;19.60;;;8.10;;
47778;SDS011;33538;48.432;11.350;2022-08-19T06:48:01;15.43;;;8.05;;
47778;SDS011;33538;48.432;11.350;2022-08-19T06:50:29;17.73;;;9.00;;
47778;SDS011;33538;48.432;11.350;2022-08-19T06:52:56;14.85;;;8.40;;
47778;SDS011;33538;48.432;11.350;2022-08-19T06:55:29;18.20;;;8.32;;
47778;SDS011;33538;48.432;11.350;2022-08-19T06:58:00;21.40;;;9.52;;
47778;SDS011;33538;48.432;11.350;2022-08-19T07:00:27;16.25;;;9.23;;
47778;SDS011;33538;48.432;11.350;2022-08-19T07:02:59;15.95;;;8.43;;
47778;SDS011;33538;48.432;11.350;2022-08-19T07:05:34;18.88;;;8.77;;
47778;SDS011;33538;48.432;11.350;2022-08-19T07:08:04;17.42;;;9.07;;
47778;SDS011;33538;48.432;11.350;2022-08-19T07:10:31;17.85;;;9.55;;
47778;SDS011;33538;48.432;11.350;2022-08-19T07:12:58;22.63;;;10.18;;
47778;SDS011;33538;48.432;11.350;2022-08-19T07:15:25;21.83;;;9.95;;
47778;SDS011;33538;48.432;11.350;2022-08-19T07:17:51;22.42;;;9.82;;
47778;SDS011;33538;48.432;11.350;2022-08-19T07:20:18;18.58;;;9.23;;
47778;SDS011;33538;48.432;11.350;2022-08-19T07:22:46;19.42;;;10.43;;
47778;SDS011;33538;48.432;11.350;2022-08-19T07:25:13;19.60;;;10.00;;
47778;SDS011;33538;48.432;11.350;2022-08-19T07:27:40;18.17;;;9.13;;
47778;SDS011;33538;48.432;11.350;2022-08-19T07:30:11;19.60;;;10.15;;
47778;SDS011;33538;48.432;11.350;2022-08-19T07:32:38;18.92;;;8.85;;
47778;SDS011;33538;48.432;11.350;2022-08-19T07:35:06;22.33;;;10.38;;
47778;SDS011;33538;48.432;11.350;2022-08-19T07:37:33;22.23;;;9.45;;
47778;SDS011;33538;48.432;11.350;2022-08-19T07:40:02;16.70;;;9.48;;
47778;SDS011;33538;48.432;11.350;2022-08-19T07:42:30;19.05;;;10.55;;
47778;SDS011;33538;48.432;11.350;2022-08-19T07:44:58;21.58;;;9.15;;
47778;SDS011;33538;48.432;11.350;2022-08-19T07:47:25;22.05;;;10.15;;
47778;SDS011;33538;48.432;11.350;2022-08-19T07:50:12;21.77;;;10.32;;
47778;SDS011;33538;48.432;11.350;2022-08-19T07:52:39;24.50;;;11.00;;
47778;SDS011;33538;48.432;11.350;2022-08-19T07:55:08;23.95;;;10.25;;
47778;SDS011;33538;48.432;11.350;2022-08-19T07:57:55;26.30;;;10.90;;
47778;SDS011;33538;48.432;11.350;2022-08-19T08:00:22;26.30;;;11.68;;
47778;SDS011;33538;48.432;11.350;2022-08-19T08:02:50;22.30;;;10.93;;
47778;SDS011;33538;48.432;11.350;2022-08-19T08:05:20;23.38;;;11.40;;
47778;SDS011;33538;48.432;11.350;2022-08-19T08:07:47;27.77;;;12.13;;
47778;SDS011;33538;48.432;11.350;2022-08-19T08:10:15;24.75;;;12.25;;
47778;SDS011;33538;48.432;11.350;2022-08-19T08:12:46;25.00;;;11.30;;
47778;SDS011;33538;48.432;11.350;2022-08-19T08:15:34;24.55;;;11.65;;
47778;SDS011;33538;48.432;11.350;2022-08-19T08:18:07;19.27;;;10.82;;
47778;SDS011;33538;48.432;11.350;2022-08-19T08:20:34;24.17;;;12.27;;
47778;SDS011;33538;48.432;11.350;2022-08-19T08:23:01;23.80;;;11.15;;
47778;SDS011;33538;48.432;11.350;2022-08-19T08:25:29;23.60;;;11.68;;
47778;SDS011;33538;48.432;11.350;2022-08-19T08:27:59;23.67;;;11.93;;
47778;SDS011;33538;48.432;11.350;2022-08-19T08:30:26;27.00;;;12.00;;
47778;SDS011;33538;48.432;11.350;2022-08-19T08:32:57;27.50;;;12.85;;
47778;SDS011;33538;48.432;11.350;2022-08-19T08:35:24;35.88;;;14.68;;
47778;SDS011;33538;48.432;11.350;2022-08-19T08:37:52;26.67;;;12.30;;
47778;SDS011;33538;48.432;11.350;2022-08-19T08:40:23;29.15;;;13.73;;
47778;SDS011;33538;48.432;11.350;2022-08-19T08:42:57;29.17;;;13.18;;
47778;SDS011;33538;48.432;11.350;2022-08-19T08:45:30;33.00;;;13.85;;
47778;SDS011;33538;48.432;11.350;2022-08-19T08:48:10;31.83;;;12.75;;
47778;SDS011;33538;48.432;11.350;2022-08-19T08:50:47;35.75;;;14.52;;
47778;SDS011;33538;48.432;11.350;2022-08-19T08:53:17;26.77;;;12.85;;
47778;SDS011;33538;48.432;11.350;2022-08-19T08:55:56;28.95;;;12.85;;
47778;SDS011;33538;48.432;11.350;2022-08-19T08:58:26;26.33;;;13.18;;
47778;SDS011;33538;48.432;11.350;2022-08-19T09:00:57;28.02;;;13.25;;
47778;SDS011;33538;48.432;11.350;2022-08-19T09:03:26;29.88;;;11.32;;
47778;SDS011;33538;48.432;11.350;2022-08-19T09:05:59;27.83;;;13.02;;
47778;SDS011;33538;48.432;11.350;2022-08-19T09:08:32;24.90;;;12.88;;
47778;SDS011;33538;48.432;11.350;2022-08-19T09:11:06;29.08;;;13.32;;
47778;SDS011;33538;48.432;11.350;2022-08-19T09:13:43;26.20;;;12.68;;
47778;SDS011;33538;48.432;11.350;2022-08-19T09:16:17;32.00;;;12.95;;
47778;SDS011;33538;48.432;11.350;2022-08-19T09:18:47;25.73;;;12.95;;
47778;SDS011;33538;48.432;11.350;2022-08-19T09:21:15;29.33;;;13.43;;
47778;SDS011;33538;48.432;11.350;2022-08-19T09:23:42;30.20;;;13.77;;
47778;SDS011;33538;48.432;11.350;2022-08-19T09:26:09;28.88;;;13.45;;
47778;SDS011;33538;48.432;11.350;2022-08-19T09:28:44;26.17;;;12.65;;
47778;SDS011;33538;48.432;11.350;2022-08-19T09:31:15;29.92;;;13.55;;
47778;SDS011;33538;48.432;11.350;2022-08-19T09:33:44;30.50;;;13.57;;
47778;SDS011;33538;48.432;11.350;2022-08-19T09:36:12;27.58;;;13.18;;
47778;SDS011;33538;48.432;11.350;2022-08-19T09:38:59;29.35;;;14.27;;
47778;SDS011;33538;48.432;11.350;2022-08-19T09:41:27;26.08;;;13.75;;
47778;SDS011;33538;48.432;11.350;2022-08-19T09:43:56;25.15;;;12.45;;
47778;SDS011;33538;48.432;11.350;2022-08-19T09:46:25;25.70;;;13.00;;
47778;SDS011;33538;48.432;11.350;2022-08-19T09:48:56;31.55;;;13.90;;
47778;SDS011;33538;48.432;11.350;2022-08-19T09:51:31;29.80;;;12.95;;
47778;SDS011;33538;48.432;11.350;2022-08-19T09:54:00;25.63;;;12.98;;
47778;SDS011;33538;48.432;11.350;2022-08-19T09:56:30;28.45;;;13.90;;
47778;SDS011;33538;48.432;11.350;2022-08-19T09:59:01;24.08;;;12.00;;
47778;SDS011;33538;48.432;11.350;2022-08-19T10:01:30;32.15;;;13.85;;
47778;SDS011;33538;48.432;11.350;2022-08-19T10:03:58;25.83;;;12.65;;
47778;SDS011;33538;48.432;11.350;2022-08-19T10:06:27;30.45;;;13.13;;
47778;SDS011;33538;48.432;11.350;2022-08-19T10:09:12;27.15;;;12.32;;
47778;SDS011;33538;48.432;11.350;2022-08-19T10:11:40;25.42;;;12.48;;
47778;SDS011;33538;48.432;11.350;2022-08-19T10:14:20;21.88;;;11.63;;
47778;SDS011;33538;48.432;11.350;2022-08-19T10:16:47;23.50;;;10.93;;
47778;SDS011;33538;48.432;11.350;2022-08-19T10:19:14;24.05;;;11.80;;
47778;SDS011;33538;48.432;11.350;2022-08-19T10:21:51;21.60;;;11.13;;
47778;SDS011;33538;48.432;11.350;2022-08-19T10:24:18;23.42;;;11.23;;
47778;SDS011;33538;48.432;11.350;2022-08-19T10:26:45;21.42;;;11.38;;
47778;SDS011;33538;48.432;11.350;2022-08-19T10:29:12;20.33;;;10.73;;
47778;SDS011;33538;48.432;11.350;2022-08-19T10:31:59;20.83;;;9.65;;
47778;SDS011;33538;48.432;11.350;2022-08-19T10:34:28;25.85;;;10.00;;
47778;SDS011;33538;48.432;11.350;2022-08-19T10:36:57;18.33;;;9.55;;
47778;SDS011;33538;48.432;11.350;2022-08-19T10:39:27;24.85;;;10.65;;
47778;SDS011;33538;48.432;11.350;2022-08-19T10:41:55;16.58;;;8.80;;
47778;SDS011;33538;48.432;11.350;2022-08-19T10:44:22;15.95;;;8.00;;
47778;SDS011;33538;48.432;11.350;2022-08-19T10:46:57;12.40;;;7.30;;
47778;SDS011;33538;48.432;11.350;2022-08-19T10:49:26;10.95;;;6.47;;
47778;SDS011;33538;48.432;11.350;2022-08-19T10:51:53;10.65;;;5.32;;
47778;SDS011;33538;48.432;11.350;2022-08-19T10:54:21;11.00;;;5.88;;
47778;SDS011;33538;48.432;11.350;2022-08-19T10:56:56;8.27;;;4.60;;
47778;SDS011;33538;48.432;11.350;2022-08-19T10:59:24;12.30;;;5.88;;
47778;SDS011;33538;48.432;11.350;2022-08-19T11:01:53;10.85;;;5.25;;
47778;SDS011;33538;48.432;11.350;2022-08-19T11:04:22;8.52;;;4.22;;
47778;SDS011;33538;48.432;11.350;2022-08-19T11:06:56;6.03;;;3.58;;
47778;SDS011;33538;48.432;11.350;2022-08-19T11:09:23;7.40;;;3.65;;
47778;SDS011;33538;48.432;11.350;2022-08-19T11:11:59;5.35;;;3.45;;
47778;SDS011;33538;48.432;11.350;2022-08-19T11:14:28;4.57;;;2.53;;
47778;SDS011;33538;48.432;11.350;2022-08-19T11:16:59;4.03;;;2.75;;
47778;SDS011;33538;48.432;11.350;2022-08-19T11:19:26;2.85;;;1.90;;
47778;SDS011;33538;48.432;11.350;2022-08-19T11:21:53;3.72;;;1.90;;
47778;SDS011;33538;48.432;11.350;2022-08-19T11:24:24;2.88;;;1.33;;
47778;SDS011;33538;48.432;11.350;2022-08-19T11:26:52;4.38;;;1.45;;
47778;SDS011;33538;48.432;11.350;2022-08-19T11:29:21;1.58;;;1.10;;
47778;SDS011;33538;48.432;11.350;2022-08-19T11:31:49;2.13;;;1.42;;
47778;SDS011;33538;48.432;11.350;2022-08-19T11:34:17;1.45;;;1.20;;
47778;SDS011;33538;48.432;11.350;2022-08-19T11:36:46;1.42;;;1.00;;
47778;SDS011;33538;48.432;11.350;2022-08-19T11:39:14;2.00;;;1.40;;
47778;SDS011;33538;48.432;11.350;2022-08-19T11:41:43;1.48;;;1.10;;
47778;SDS011;33538;48.432;11.350;2022-08-19T11:44:11;1.55;;;1.10;;
47778;SDS011;33538;48.432;11.350;2022-08-19T11:46:38;1.48;;;1.30;;
47778;SDS011;33538;48.432;11.350;2022-08-19T11:49:05;2.72;;;1.67;;
47778;SDS011;33538;48.432;11.350;2022-08-19T11:54:05;2.08;;;1.50;;
47778;SDS011;33538;48.432;11.350;2022-08-19T11:56:32;2.53;;;1.67;;
47778;SDS011;33538;48.432;11.350;2022-08-19T11:59:01;3.20;;;1.58;;
47778;SDS011;33538;48.432;11.350;2022-08-19T12:01:28;2.97;;;1.80;;
47778;SDS011;33538;48.432;11.350;2022-08-19T12:03:55;3.30;;;2.20;;
47778;SDS011;33538;48.432;11.350;2022-08-19T12:06:23;2.63;;;1.65;;
47778;SDS011;33538;48.432;11.350;2022-08-19T12:08:52;3.10;;;2.25;;
47778;SDS011;33538;48.432;11.350;2022-08-19T12:11:19;4.63;;;2.10;;
47778;SDS011;33538;48.432;11.350;2022-08-19T12:13:45;2.83;;;1.80;;
47778;SDS011;33538;48.432;11.350;2022-08-19T12:16:15;2.88;;;2.03;;
47778;SDS011;33538;48.432;11.350;2022-08-19T12:18:43;2.33;;;2.13;;
47778;SDS011;33538;48.432;11.350;2022-08-19T12:21:11;3.22;;;1.95;;
47778;SDS011;33538;48.432;11.350;2022-08-19T12:23:38;3.17;;;2.00;;
47778;SDS011;33538;48.432;11.350;2022-08-19T12:26:05;4.00;;;2.42;;
47778;SDS011;33538;48.432;11.350;2022-08-19T12:28:32;8.02;;;2.55;;
47778;SDS011;33538;48.432;11.350;2022-08-19T12:30:59;3.63;;;2.17;;
47778;SDS011;33538;48.432;11.350;2022-08-19T12:33:27;3.25;;;2.42;;
47778;SDS011;33538;48.432;11.350;2022-08-19T12:35:54;3.80;;;2.30;;
47778;SDS011;33538;48.432;11.350;2022-08-19T12:38:25;3.83;;;2.63;;
47778;SDS011;33538;48.432;11.350;2022-08-19T12:40:52;3.80;;;2.40;;
47778;SDS011;33538;48.432;11.350;2022-08-19T12:43:25;3.65;;;2.28;;
47778;SDS011;33538;48.432;11.350;2022-08-19T12:45:52;4.25;;;2.55;;
47778;SDS011;33538;48.432;11.350;2022-08-19T12:48:18;5.15;;;2.55;;
47778;SDS011;33538;48.432;11.350;2022-08-19T12:51:05;5.28;;;2.50;;
47778;SDS011;33538;48.432;11.350;2022-08-19T12:53:33;4.78;;;2.88;;
47778;SDS011;33538;48.432;11.350;2022-08-19T12:56:04;3.50;;;2.20;;
47778;SDS011;33538;48.432;11.350;2022-08-19T12:58:36;3.83;;;2.72;;
47778;SDS011;33538;48.432;11.350;2022-08-19T13:01:07;3.75;;;2.75;;
47778;SDS011;33538;48.432;11.350;2022-08-19T13:03:35;5.38;;;3.15;;
47778;SDS011;33538;48.432;11.350;2022-08-19T13:06:07;6.22;;;3.83;;
47778;SDS011;33538;48.432;11.350;2022-08-19T13:08:35;6.20;;;3.20;;
47778;SDS011;33538;48.432;11.350;2022-08-19T13:11:09;5.70;;;3.08;;
47778;SDS011;33538;48.432;11.350;2022-08-19T13:13:37;5.60;;;3.47;;
47778;SDS011;33538;48.432;11.350;2022-08-19T13:16:05;4.32;;;2.85;;
47778;SDS011;33538;48.432;11.350;2022-08-19T13:18:32;4.60;;;3.03;;
47778;SDS011;33538;48.432;11.350;2022-08-19T13:21:01;4.72;;;3.13;;
47778;SDS011;33538;48.432;11.350;2022-08-19T13:23:30;2.42;;;1.95;;
47778;SDS011;33538;48.432;11.350;2022-08-19T13:25:57;3.75;;;2.20;;
47778;SDS011;33538;48.432;11.350;2022-08-19T13:28:24;2.08;;;1.65;;
47778;SDS011;33538;48.432;11.350;2022-08-19T13:30:54;2.30;;;1.83;;
47778;SDS011;33538;48.432;11.350;2022-08-19T13:33:21;2.63;;;1.73;;
47778;SDS011;33538;48.432;11.350;2022-08-19T13:35:48;2.55;;;1.80;;
47778;SDS011;33538;48.432;11.350;2022-08-19T13:38:18;3.10;;;1.73;;
47778;SDS011;33538;48.432;11.350;2022-08-19T13:40:48;4.70;;;2.60;;
47778;SDS011;33538;48.432;11.350;2022-08-19T13:43:16;2.55;;;1.92;;
47778;SDS011;33538;48.432;11.350;2022-08-19T13:45:49;3.97;;;2.50;;
47778;SDS011;33538;48.432;11.350;2022-08-19T13:48:16;4.45;;;2.40;;
47778;SDS011;33538;48.432;11.350;2022-08-19T13:50:44;3.30;;;2.20;;
47778;SDS011;33538;48.432;11.350;2022-08-19T13:53:11;5.15;;;2.90;;
47778;SDS011;33538;48.432;11.350;2022-08-19T13:55:38;5.32;;;2.63;;
47778;SDS011;33538;48.432;11.350;2022-08-19T13:58:07;5.10;;;3.22;;
47778;SDS011;33538;48.432;11.350;2022-08-19T14:00:36;5.10;;;2.92;;
47778;SDS011;33538;48.432;11.350;2022-08-19T14:03:05;7.93;;;4.78;;
47778;SDS011;33538;48.432;11.350;2022-08-19T14:05:34;9.02;;;4.95;;
47778;SDS011;33538;48.432;11.350;2022-08-19T14:08:01;11.88;;;6.03;;
47778;SDS011;33538;48.432;11.350;2022-08-19T14:10:29;13.60;;;6.40;;
47778;SDS011;33538;48.432;11.350;2022-08-19T14:12:59;10.00;;;5.60;;
47778;SDS011;33538;48.432;11.350;2022-08-19T14:15:30;11.00;;;5.20;;
47778;SDS011;33538;48.432;11.350;2022-08-19T14:17:58;10.60;;;5.88;;
47778;SDS011;33538;48.432;11.350;2022-08-19T14:20:25;13.60;;;6.60;;
47778;SDS011;33538;48.432;11.350;2022-08-19T14:22:52;11.32;;;6.35;;
47778;SDS011;33538;48.432;11.350;2022-08-19T14:25:21;13.85;;;5.38;;
47778;SDS011;33538;48.432;11.350;2022-08-19T14:27:49;10.00;;;4.97;;
47778;SDS011;33538;48.432;11.350;2022-08-19T14:30:18;14.52;;;6.75;;
47778;SDS011;33538;48.432;11.350;2022-08-19T14:32:48;10.18;;;5.55;;
47778;SDS011;33538;48.432;11.350;2022-08-19T14:35:15;9.60;;;5.32;;
47778;SDS011;33538;48.432;11.350;2022-08-19T14:37:43;9.35;;;5.28;;
47778;SDS011;33538;48.432;11.350;2022-08-19T14:40:11;12.98;;;6.28;;
47778;SDS011;33538;48.432;11.350;2022-08-19T14:42:39;11.50;;;6.18;;